Time;durP1;ratioP1;P1;durP2;ratioP2;P2;SDS_P1;SDS_P2;PMS_P1;PMS_P2;Temp;Humidity;BMP_temperature;BMP_pressure;BME280_temperature;BME280_humidity;BME280_pressure;Samples;Min_cycle;Max_cycle;Signal;HPM_P1;HPM_P2
2023/09/24 00:01:43;;;;;;;;;;;;;;;22.12;29.50;97929.81;5040260;28;951;-78
2023/09/24 00:04:10;;;;;;;;;;;;;;;22.10;29.64;97927.41;5040198;28;938;-78
2023/09/24 00:06:35;;;;;;;;;;;;;;;22.21;29.65;97922.22;5023892;28;860;-78
2023/09/24 00:09:01;;;;;;;;;;;;;;;22.30;29.47;97930.88;5039846;28;1985;-78
2023/09/24 00:11:26;;;;;;;;;;;;;;;22.31;29.52;97926.78;5057501;28;906;-78
2023/09/24 00:13:53;;;;;;;;;;;;;;;22.01;29.92;97925.22;5039207;28;1370;-78
2023/09/24 00:16:19;;;;;;;;;;;;;;;22.01;30.10;97930.09;5057292;28;1329;-78
2023/09/24 00:18:45;;;;;;;;;;;;;;;21.79;30.08;97919.38;5023046;28;924;-78
2023/09/24 00:21:10;;;;;;;;;;;;;;;21.87;30.17;97924.88;5039923;28;926;-78
2023/09/24 00:23:36;;;;;;;;;;;;;;;22.00;29.91;97905.84;5057529;28;911;-78
2023/09/24 00:26:02;;;;;;;;;;;;;;;22.15;29.77;97907.03;5039696;28;1543;-79
2023/09/24 00:28:27;;;;;;;;;;;;;;;22.06;29.85;97913.31;5038721;28;1392;-78
2023/09/24 00:30:55;;;;;;;;;;;;;;;21.97;29.95;97906.75;5055855;28;1926;-78
2023/09/24 00:33:21;;;;;;;;;;;;;;;22.06;29.88;97899.16;5057194;28;889;-78
2023/09/24 00:35:47;;;;;;;;;;;;;;;21.91;30.08;97908.53;5057313;28;908;-79
2023/09/24 00:38:12;;;;;;;;;;;;;;;21.81;30.01;97911.25;5038525;28;1042;-78
2023/09/24 00:40:38;;;;;;;;;;;;;;;22.11;29.96;97912.00;5056163;28;1699;-78
2023/09/24 00:43:23;;;;;;;;;;;;;;;22.05;29.98;97899.63;5017886;28;1390;-78
2023/09/24 00:45:49;;;;;;;;;;;;;;;22.18;29.67;97916.69;5037269;28;965;-78
2023/09/24 00:48:15;;;;;;;;;;;;;;;22.24;29.43;97907.16;5019304;28;952;-78
2023/09/24 00:50:41;;;;;;;;;;;;;;;22.10;29.61;97911.22;5040324;28;1969;-78
2023/09/24 00:53:07;;;;;;;;;;;;;;;22.09;29.56;97915.28;5019343;28;1166;-78
2023/09/24 00:55:33;;;;;;;;;;;;;;;21.95;30.17;97909.22;5018880;28;1131;-78
2023/09/24 00:57:59;;;;;;;;;;;;;;;22.08;29.76;97907.22;5040590;28;1390;-78
2023/09/24 01:00:28;;;;;;;;;;;;;;;22.02;29.79;97904.16;5055962;28;943;-78
2023/09/24 01:02:54;;;;;;;;;;;;;;;22.11;29.79;97903.50;5057173;28;971;-79
2023/09/24 01:05:20;;;;;;;;;;;;;;;22.04;29.63;97898.03;5055289;28;925;-79
2023/09/24 01:07:45;;;;;;;;;;;;;;;22.08;29.85;97898.72;5056497;28;908;-78
2023/09/24 01:10:11;;;;;;;;;;;;;;;22.00;29.87;97897.34;5055477;28;1906;-78
2023/09/24 01:12:39;;;;;;;;;;;;;;;22.02;29.98;97898.50;5056138;28;1418;-78
2023/09/24 01:15:08;;;;;;;;;;;;;;;22.26;29.58;97906.69;5055010;28;1443;-78
2023/09/24 01:17:35;;;;;;;;;;;;;;;21.90;29.88;97906.94;5038371;28;858;-78
2023/09/24 01:20:05;;;;;;;;;;;;;;;22.06;29.93;97909.69;5021758;28;960;-78
2023/09/24 01:22:31;;;;;;;;;;;;;;;22.15;29.71;97894.91;5056263;28;960;-78
2023/09/24 01:24:56;;;;;;;;;;;;;;;22.12;29.65;97896.59;5056445;28;910;-78
2023/09/24 01:27:24;;;;;;;;;;;;;;;21.90;30.16;97898.44;5034032;28;1704;-78
2023/09/24 01:29:50;;;;;;;;;;;;;;;21.95;30.08;97898.69;5034105;28;1984;-78
2023/09/24 01:32:16;;;;;;;;;;;;;;;22.12;29.67;97901.47;5035646;28;1862;-78
2023/09/24 01:34:42;;;;;;;;;;;;;;;22.17;29.50;97901.69;5014369;28;1287;-78
2023/09/24 01:37:09;;;;;;;;;;;;;;;22.30;29.27;97901.72;5014746;28;960;-79
2023/09/24 01:39:36;;;;;;;;;;;;;;;22.24;29.77;97897.88;4998207;28;1183;-78
2023/09/24 01:42:02;;;;;;;;;;;;;;;22.12;29.68;97898.63;5002324;28;1368;-78
2023/09/24 01:44:28;;;;;;;;;;;;;;;22.18;29.53;97891.97;5033900;28;1431;-78
2023/09/24 01:46:53;;;;;;;;;;;;;;;21.79;30.18;97891.06;5018113;28;926;-78
2023/09/24 01:49:19;;;;;;;;;;;;;;;21.96;30.30;97893.81;5017348;28;1906;-78
2023/09/24 01:51:45;;;;;;;;;;;;;;;22.06;29.79;97893.50;5017458;28;1123;-78
2023/09/24 01:54:10;;;;;;;;;;;;;;;22.01;29.91;97896.09;5017542;28;977;-78
2023/09/24 01:56:36;;;;;;;;;;;;;;;22.01;29.92;97893.25;5016846;28;1531;-78
2023/09/24 01:59:06;;;;;;;;;;;;;;;21.88;30.37;97892.44;5017454;28;1272;-78
2023/09/24 02:01:33;;;;;;;;;;;;;;;21.99;29.87;97898.59;4985706;28;1151;-79
2023/09/24 02:03:59;;;;;;;;;;;;;;;21.88;29.99;97907.41;5001000;28;1170;-78
2023/09/24 02:06:25;;;;;;;;;;;;;;;22.15;29.60;97907.03;5051689;28;918;-78
2023/09/24 02:08:51;;;;;;;;;;;;;;;22.10;29.97;97910.41;5025073;28;1870;-78
2023/09/24 02:11:17;;;;;;;;;;;;;;;22.08;29.76;97912.91;5055417;28;1313;-78
2023/09/24 02:13:42;;;;;;;;;;;;;;;22.28;29.76;97912.72;5005917;28;1196;-78
2023/09/24 02:16:08;;;;;;;;;;;;;;;22.38;29.31;97913.63;5005862;28;1208;-78
2023/09/24 02:18:34;;;;;;;;;;;;;;;22.22;29.75;97912.47;5005543;28;1206;-78
2023/09/24 02:20:59;;;;;;;;;;;;;;;22.04;29.89;97907.31;5005750;28;1335;-78
2023/09/24 02:23:25;;;;;;;;;;;;;;;21.88;30.12;97909.44;5036116;28;1421;-78
2023/09/24 02:25:51;;;;;;;;;;;;;;;21.97;30.15;97913.22;5039728;28;1524;-78
2023/09/24 02:28:18;;;;;;;;;;;;;;;21.82;30.41;97915.66;5004706;28;1379;-78
2023/09/24 02:30:43;;;;;;;;;;;;;;;21.79;30.27;97919.38;5022043;28;1921;-78
2023/09/24 02:33:09;;;;;;;;;;;;;;;21.90;30.17;97913.41;5010079;28;1416;-78
2023/09/24 02:35:35;;;;;;;;;;;;;;;21.90;30.33;97918.28;5041520;28;1371;-78
2023/09/24 02:38:00;;;;;;;;;;;;;;;21.78;30.46;97923.47;5041536;28;1213;-78
2023/09/24 02:40:30;;;;;;;;;;;;;;;21.91;30.10;97926.31;5041248;28;957;-78
2023/09/24 02:42:56;;;;;;;;;;;;;;;21.72;30.35;97922.44;5041208;28;1182;-78
2023/09/24 02:45:22;;;;;;;;;;;;;;;22.02;29.79;97920.34;5024095;28;1245;-78
2023/09/24 02:47:49;;;;;;;;;;;;;;;22.09;30.04;97909.59;5016434;28;1468;-78
2023/09/24 02:50:15;;;;;;;;;;;;;;;22.20;29.42;97914.19;4998533;28;1987;-78
2023/09/24 02:52:41;;;;;;;;;;;;;;;22.14;29.42;97907.50;5020376;28;1203;-78
2023/09/24 02:55:07;;;;;;;;;;;;;;;22.20;29.63;97905.69;5036750;28;1122;-78
2023/09/24 02:57:33;;;;;;;;;;;;;;;22.03;29.72;97910.63;5004216;28;955;-78
2023/09/24 02:59:58;;;;;;;;;;;;;;;21.95;30.10;97898.69;5000488;28;1124;-78
2023/09/24 03:02:28;;;;;;;;;;;;;;;21.94;29.88;97902.78;5000612;28;1100;-78
2023/09/24 03:04:56;;;;;;;;;;;;;;;21.98;30.13;97911.19;4975444;28;1846;-79
2023/09/24 03:07:22;;;;;;;;;;;;;;;21.97;30.16;97906.75;4961387;28;1455;-78
2023/09/24 03:09:49;;;;;;;;;;;;;;;22.10;29.74;97899.06;4977550;28;1910;-78
2023/09/24 03:12:14;;;;;;;;;;;;;;;22.24;29.54;97904.34;4977667;28;1237;-78
2023/09/24 03:14:40;;;;;;;;;;;;;;;22.27;29.55;97902.63;4961522;28;1307;-78
2023/09/24 03:17:05;;;;;;;;;;;;;;;22.04;29.63;97895.19;4958403;28;1012;-78
2023/09/24 03:19:31;;;;;;;;;;;;;;;22.22;29.64;97900.34;4950809;28;1384;-78
2023/09/24 03:21:56;;;;;;;;;;;;;;;22.42;29.30;97911.47;4957835;29;1163;-78
2023/09/24 03:24:22;;;;;;;;;;;;;;;22.08;29.61;97907.22;4941917;29;964;-78
2023/09/24 03:26:48;;;;;;;;;;;;;;;21.73;30.27;97909.84;4958326;28;1158;-79
2023/09/24 03:29:15;;;;;;;;;;;;;;;22.04;29.85;97915.03;4958153;28;2005;-77
2023/09/24 03:31:42;;;;;;;;;;;;;;;22.18;29.64;97923.16;4973329;28;1388;-78
2023/09/24 03:34:07;;;;;;;;;;;;;;;21.93;30.01;97923.06;4979666;28;1395;-78
2023/09/24 03:36:33;;;;;;;;;;;;;;;22.02;29.85;97926.00;4994681;28;1437;-78
2023/09/24 03:38:59;;;;;;;;;;;;;;;22.08;29.61;97924.22;5002773;28;1468;-78
2023/09/24 03:41:24;;;;;;;;;;;;;;;22.11;29.52;97934.69;5019349;28;1333;-78
2023/09/24 03:43:51;;;;;;;;;;;;;;;21.98;29.65;97928.97;5019197;28;1267;-79
2023/09/24 03:46:16;;;;;;;;;;;;;;;21.98;29.98;97939.50;4987114;28;1402;-78
2023/09/24 03:48:42;;;;;;;;;;;;;;;22.02;29.66;97945.84;5023621;28;1186;-78
2023/09/24 03:51:07;;;;;;;;;;;;;;;22.29;28.99;97940.63;5038877;28;1426;-78
2023/09/24 03:53:33;;;;;;;;;;;;;;;22.44;28.92;97935.31;5039531;28;1679;-78
2023/09/24 03:55:58;;;;;;;;;;;;;;;22.30;29.38;97930.88;5057867;28;1045;-79
2023/09/24 03:58:24;;;;;;;;;;;;;;;22.06;29.68;97932.38;5040340;28;928;-78
2023/09/24 04:00:50;;;;;;;;;;;;;;;22.06;29.82;97927.50;5058027;28;1044;-78
2023/09/24 04:03:16;;;;;;;;;;;;;;;21.97;29.95;97932.25;5040460;28;1067;-78
2023/09/24 04:05:42;;;;;;;;;;;;;;;22.03;29.79;97936.91;5023878;28;1302;-78
2023/09/24 04:08:08;;;;;;;;;;;;;;;22.05;29.85;97937.25;5038712;28;1806;-78
2023/09/24 04:10:34;;;;;;;;;;;;;;;22.22;29.52;97940.03;5006944;28;1985;-78
2023/09/24 04:13:00;;;;;;;;;;;;;;;22.06;29.70;97938.81;5039898;28;961;-78
2023/09/24 04:15:28;;;;;;;;;;;;;;;22.06;29.72;97938.81;5057037;28;1290;-79
2023/09/24 04:17:57;;;;;;;;;;;;;;;22.14;29.39;97945.13;5006037;28;1140;-78
2023/09/24 04:20:23;;;;;;;;;;;;;;;21.96;29.85;97939.13;5039827;28;987;-78
2023/09/24 04:22:49;;;;;;;;;;;;;;;22.12;29.45;97930.59;5039644;28;966;-78
2023/09/24 04:25:15;;;;;;;;;;;;;;;22.07;29.47;97943.28;5039432;28;989;-78
2023/09/24 04:27:43;;;;;;;;;;;;;;;22.05;29.63;97944.94;5039663;28;1120;-78
2023/09/24 04:30:15;;;;;;;;;;;;;;;21.89;29.88;97956.34;5038273;28;1985;-77
2023/09/24 04:32:41;;;;;;;;;;;;;;;21.97;29.75;97944.38;5057305;28;909;-78
2023/09/24 04:35:07;;;;;;;;;;;;;;;21.93;29.80;97948.56;5056961;28;1101;-78
2023/09/24 04:37:33;;;;;;;;;;;;;;;22.10;29.75;97945.22;5057222;28;935;-78
2023/09/24 04:39:58;;;;;;;;;;;;;;;22.16;29.58;97959.63;5056913;28;1034;-78
2023/09/24 04:42:24;;;;;;;;;;;;;;;22.24;29.29;97944.00;5021618;28;1168;-78
2023/09/24 04:44:49;;;;;;;;;;;;;;;22.02;29.76;97960.81;5022423;28;956;-78
2023/09/24 04:47:15;;;;;;;;;;;;;;;22.30;29.31;97959.22;5039627;28;908;-78
2023/09/24 04:49:40;;;;;;;;;;;;;;;22.21;29.59;97955.44;5038435;28;1983;-78
2023/09/24 04:52:06;;;;;;;;;;;;;;;22.24;29.59;97952.50;5038886;28;1041;-78
2023/09/24 04:54:31;;;;;;;;;;;;;;;22.34;29.30;97954.22;5039261;28;941;-78
2023/09/24 04:56:57;;;;;;;;;;;;;;;22.03;29.97;97961.63;5038789;28;878;-77
2023/09/24 04:59:22;;;;;;;;;;;;;;;21.84;29.98;97960.53;5056265;28;1490;-78
2023/09/24 05:01:48;;;;;;;;;;;;;;;22.05;29.58;97970.44;5039043;28;935;-78
2023/09/24 05:04:16;;;;;;;;;;;;;;;21.90;29.98;97969.28;5056571;28;909;-78
2023/09/24 05:06:41;;;;;;;;;;;;;;;22.09;29.62;97966.28;5039410;28;900;-79
2023/09/24 05:09:07;;;;;;;;;;;;;;;22.33;29.25;97969.66;5038417;28;1973;-78
2023/09/24 05:11:32;;;;;;;;;;;;;;;22.04;29.68;97966.03;5038425;28;1034;-79
2023/09/24 05:13:58;;;;;;;;;;;;;;;22.07;29.83;97962.28;5056631;28;858;-77
2023/09/24 05:16:24;;;;;;;;;;;;;;;22.19;29.57;97967.25;5056561;28;913;-78
2023/09/24 05:18:50;;;;;;;;;;;;;;;22.28;29.41;97967.38;5055965;28;1047;-78
2023/09/24 05:21:15;;;;;;;;;;;;;;;22.32;29.26;97961.59;5056586;28;866;-78
2023/09/24 05:23:41;;;;;;;;;;;;;;;22.15;29.85;97963.72;5038621;28;1041;-78
2023/09/24 05:26:11;;;;;;;;;;;;;;;21.90;30.19;97964.41;5056200;28;930;-78
2023/09/24 05:28:37;;;;;;;;;;;;;;;21.84;30.10;97966.97;5056110;28;939;-78
2023/09/24 05:31:02;;;;;;;;;;;;;;;21.87;30.10;97970.19;5056459;28;1991;-78
2023/09/24 05:33:28;;;;;;;;;;;;;;;21.91;29.96;97970.84;5056213;28;1117;-78
2023/09/24 05:35:54;;;;;;;;;;;;;;;22.14;29.76;97979.13;5056390;28;997;-78
2023/09/24 05:38:19;;;;;;;;;;;;;;;22.06;29.67;97983.38;5056166;28;856;-79
2023/09/24 05:40:45;;;;;;;;;;;;;;;22.06;29.78;97989.81;5038314;28;1117;-78
2023/09/24 05:43:11;;;;;;;;;;;;;;;22.24;29.69;97991.41;5042606;28;1042;-78
2023/09/24 05:45:43;;;;;;;;;;;;;;;22.30;29.54;97987.56;5060388;28;964;-77
2023/09/24 05:48:09;;;;;;;;;;;;;;;22.01;30.05;97998.09;5042631;28;943;-78
2023/09/24 05:50:34;;;;;;;;;;;;;;;21.99;30.02;97989.25;5042449;28;1981;-78
2023/09/24 05:53:00;;;;;;;;;;;;;;;22.02;30.10;97994.81;5060266;28;972;-77
2023/09/24 05:55:25;;;;;;;;;;;;;;;22.03;29.92;97999.25;5059685;28;895;-78
2023/09/24 05:57:51;;;;;;;;;;;;;;;22.13;29.82;98005.09;5024893;28;1013;-77
2023/09/24 06:00:16;;;;;;;;;;;;;;;22.25;29.81;98007.94;5041997;28;1260;-78
2023/09/24 06:02:42;;;;;;;;;;;;;;;22.21;30.02;98007.25;5025659;28;1201;-77
2023/09/24 06:05:09;;;;;;;;;;;;;;;21.77;30.13;97961.53;5025558;28;948;-78
2023/09/24 06:07:34;;;;;;;;;;;;;;;22.15;29.82;98006.22;5042192;28;1015;-78
2023/09/24 06:10:04;;;;;;;;;;;;;;;22.07;30.16;98013.28;5041933;28;1965;-78
2023/09/24 06:12:33;;;;;;;;;;;;;;;22.07;29.92;98010.47;5057124;28;958;-78
2023/09/24 06:14:59;;;;;;;;;;;;;;;22.12;30.09;98007.09;5041447;28;960;-78
2023/09/24 06:17:24;;;;;;;;;;;;;;;22.36;29.67;98014.09;5041940;28;1201;-78
2023/09/24 06:19:50;;;;;;;;;;;;;;;22.13;30.16;98005.09;5059655;28;979;-78
2023/09/24 06:22:15;;;;;;;;;;;;;;;21.82;30.49;98009.13;5059185;28;1071;-77
2023/09/24 06:24:41;;;;;;;;;;;;;;;22.05;30.25;98016.59;5024808;28;1292;-78
2023/09/24 06:27:06;;;;;;;;;;;;;;;22.19;29.90;98018.25;5059537;28;870;-79
2023/09/24 06:29:38;;;;;;;;;;;;;;;22.29;29.89;98016.34;5041152;28;1971;-78
2023/09/24 06:32:03;;;;;;;;;;;;;;;21.93;30.47;98019.38;5042317;28;904;-78
2023/09/24 06:34:30;;;;;;;;;;;;;;;22.20;30.10;98028.34;5040517;28;1143;-78
2023/09/24 06:36:55;;;;;;;;;;;;;;;22.31;30.00;98028.03;5024918;28;1087;-75
2023/09/24 06:39:21;;;;;;;;;;;;;;;22.36;29.62;98022.59;5058694;28;1154;-75
2023/09/24 06:41:46;;;;;;;;;;;;;;;22.08;30.20;98021.38;5059055;28;901;-76
2023/09/24 06:44:13;;;;;;;;;;;;;;;22.00;30.57;98019.16;5058479;28;1035;-75
2023/09/24 06:46:39;;;;;;;;;;;;;;;22.02;30.34;98022.34;5024670;28;940;-76
2023/09/24 06:49:05;;;;;;;;;;;;;;;22.21;30.33;98017.78;5040904;28;1902;-75
2023/09/24 06:51:30;;;;;;;;;;;;;;;21.94;30.50;98023.78;5058956;28;1174;-76
2023/09/24 06:53:56;;;;;;;;;;;;;;;21.87;30.80;98026.84;5040565;28;1115;-75
2023/09/24 06:56:21;;;;;;;;;;;;;;;22.11;30.40;98033.84;5041370;28;932;-76
2023/09/24 06:58:47;;;;;;;;;;;;;;;21.97;30.66;98025.75;5024329;28;940;-76
2023/09/24 07:01:12;;;;;;;;;;;;;;;21.95;30.71;98036.72;5058303;28;1158;-75
2023/09/24 07:03:38;;;;;;;;;;;;;;;22.01;30.72;98038.53;5058588;28;981;-76
2023/09/24 07:06:04;;;;;;;;;;;;;;;22.05;30.45;98033.56;5058850;28;1089;-75
2023/09/24 07:08:33;;;;;;;;;;;;;;;22.06;30.77;98034.38;5024051;28;943;-75
2023/09/24 07:11:17;;;;;;;;;;;;;;;22.09;30.44;98037.13;5040643;28;1918;-76
2023/09/24 07:13:43;;;;;;;;;;;;;;;22.36;30.07;98035.97;5040658;28;984;-75
2023/09/24 07:16:08;;;;;;;;;;;;;;;22.24;30.24;98034.72;5058649;28;1000;-76
2023/09/24 07:18:34;;;;;;;;;;;;;;;22.28;30.37;98045.94;5058738;28;1025;-76
2023/09/24 07:20:59;;;;;;;;;;;;;;;22.25;30.27;98047.63;5024027;28;1117;-76
2023/09/24 07:23:25;;;;;;;;;;;;;;;22.34;30.04;98044.16;5023869;28;968;-75
2023/09/24 07:25:50;;;;;;;;;;;;;;;22.40;30.15;98047.22;5040376;28;1098;-75
2023/09/24 07:28:16;;;;;;;;;;;;;;;22.51;29.78;98050.53;5040457;28;1250;-76
2023/09/24 07:30:41;;;;;;;;;;;;;;;22.38;30.27;98038.34;5058240;28;1913;-76
2023/09/24 07:33:08;;;;;;;;;;;;;;;22.25;30.04;98050.47;5057749;28;1302;-76
2023/09/24 07:35:34;;;;;;;;;;;;;;;22.40;30.12;98052.91;5026316;28;1142;-76
2023/09/24 07:38:00;;;;;;;;;;;;;;;22.26;30.17;98049.22;5024954;28;1249;-77
2023/09/24 07:40:25;;;;;;;;;;;;;;;22.24;30.37;98051.72;5024724;28;1494;-77
2023/09/24 07:42:50;;;;;;;;;;;;;;;22.25;30.25;98047.63;4984485;28;1286;-77
2023/09/24 07:45:18;;;;;;;;;;;;;;;22.36;29.98;98050.16;4970407;28;1262;-76
2023/09/24 07:47:44;;;;;;;;;;;;;;;22.41;30.15;98041.09;4964938;28;1247;-77
2023/09/24 07:50:10;;;;;;;;;;;;;;;22.16;30.58;98055.19;4967970;28;1898;-77
2023/09/24 07:52:36;;;;;;;;;;;;;;;22.45;29.88;98041.00;4951452;28;1259;-76
2023/09/24 07:55:01;;;;;;;;;;;;;;;22.19;30.38;98052.25;4966676;28;1223;-76
2023/09/24 07:57:27;;;;;;;;;;;;;;;22.47;29.72;98047.78;4933600;28;1295;-77
2023/09/24 07:59:53;;;;;;;;;;;;;;;22.48;30.10;98045.75;4967178;28;1310;-77
2023/09/24 08:02:20;;;;;;;;;;;;;;;22.39;30.19;98039.97;4964508;28;1391;-77
2023/09/24 08:04:46;;;;;;;;;;;;;;;22.42;30.32;98047.56;4933135;28;1232;-77
2023/09/24 08:07:11;;;;;;;;;;;;;;;22.21;30.39;98057.47;4967171;28;1389;-76
2023/09/24 08:09:38;;;;;;;;;;;;;;;22.26;30.18;98054.88;4973733;28;1894;-76
2023/09/24 08:12:04;;;;;;;;;;;;;;;22.37;30.21;98051.75;4964774;28;995;-76
2023/09/24 08:14:29;;;;;;;;;;;;;;;22.29;30.37;98042.66;5030840;28;1005;-76
2023/09/24 08:16:55;;;;;;;;;;;;;;;22.47;30.08;98041.34;5002312;28;1321;-77
2023/09/24 08:19:21;;;;;;;;;;;;;;;22.31;30.38;98051.50;5066940;28;1085;-76
2023/09/24 08:21:46;;;;;;;;;;;;;;;22.45;30.31;98060.84;5076946;28;1095;-77
2023/09/24 08:24:12;;;;;;;;;;;;;;;22.51;30.20;98057.00;5059244;28;931;-77
2023/09/24 08:26:43;;;;;;;;;;;;;;;22.31;30.55;98060.00;5093788;27;1263;-77
2023/09/24 08:29:09;;;;;;;;;;;;;;;22.27;30.61;98056.47;5127065;28;906;-77
2023/09/24 08:31:35;;;;;;;;;;;;;;;22.42;30.51;98056.06;5092826;28;1579;-77
2023/09/24 08:34:00;;;;;;;;;;;;;;;22.33;30.35;98054.69;5091266;28;1141;-77
2023/09/24 08:36:26;;;;;;;;;;;;;;;22.30;30.62;98051.97;5091448;28;1179;-77
2023/09/24 08:38:51;;;;;;;;;;;;;;;22.44;30.33;98047.91;5091336;28;1021;-77
2023/09/24 08:41:17;;;;;;;;;;;;;;;22.50;30.08;98048.94;5091402;28;1216;-77
2023/09/24 08:43:42;;;;;;;;;;;;;;;22.54;30.32;98046.81;5091251;28;931;-77
2023/09/24 08:46:08;;;;;;;;;;;;;;;22.38;30.20;98046.88;5091193;28;1914;-77
2023/09/24 08:48:34;;;;;;;;;;;;;;;22.19;30.83;98048.63;5073897;28;1046;-77
2023/09/24 08:50:59;;;;;;;;;;;;;;;22.29;30.70;98059.66;5091401;28;1193;-77
2023/09/24 08:53:28;;;;;;;;;;;;;;;22.12;30.68;98043.94;5094110;28;1418;-77
2023/09/24 08:55:54;;;;;;;;;;;;;;;22.32;30.68;98040.94;5111163;28;1001;-77
2023/09/24 08:58:19;;;;;;;;;;;;;;;22.24;30.95;98045.25;5094204;28;1022;-77
2023/09/24 09:00:45;;;;;;;;;;;;;;;22.07;31.16;98048.13;5094441;28;952;-77
2023/09/24 09:03:10;;;;;;;;;;;;;;;22.52;30.34;98043.63;5094191;28;1040;-77
2023/09/24 09:05:36;;;;;;;;;;;;;;;22.39;30.49;98042.81;5111430;28;1914;-77
2023/09/24 09:08:03;;;;;;;;;;;;;;;22.43;30.63;98043.47;5094405;28;1013;-77
2023/09/24 09:10:30;;;;;;;;;;;;;;;22.28;30.66;98049.56;5093893;28;942;-77
2023/09/24 09:13:02;;;;;;;;;;;;;;;22.42;30.51;98039.84;5094349;28;916;-77
2023/09/24 09:15:27;;;;;;;;;;;;;;;22.40;30.56;98041.56;5110831;28;1099;-77
2023/09/24 09:17:53;;;;;;;;;;;;;;;22.44;30.77;98047.91;5110952;28;1065;-76
2023/09/24 09:20:18;;;;;;;;;;;;;;;22.55;30.46;98048.41;5093992;28;1126;-77
2023/09/24 09:22:46;;;;;;;;;;;;;;;22.35;30.94;98040.84;5076896;28;1063;-77
2023/09/24 09:25:14;;;;;;;;;;;;;;;22.59;30.43;98043.41;5110360;28;1933;-77
2023/09/24 09:27:42;;;;;;;;;;;;;;;22.49;30.81;98044.53;5053211;28;975;-77
2023/09/24 09:30:13;;;;;;;;;;;;;;;22.35;30.99;98040.84;5053763;28;971;-77
2023/09/24 09:32:38;;;;;;;;;;;;;;;22.18;31.17;98047.84;5069772;28;1078;-77
2023/09/24 09:35:04;;;;;;;;;;;;;;;22.39;30.65;98039.97;5069514;28;990;-77
2023/09/24 09:37:30;;;;;;;;;;;;;;;22.57;30.37;98045.91;5076745;28;1454;-77
2023/09/24 09:39:55;;;;;;;;;;;;;;;22.49;30.76;98045.31;5056845;28;930;-77
2023/09/24 09:42:22;;;;;;;;;;;;;;;22.22;31.36;98045.69;5056366;28;992;-77
2023/09/24 09:44:49;;;;;;;;;;;;;;;22.39;30.79;98045.63;5023139;28;1914;-77
2023/09/24 09:47:15;;;;;;;;;;;;;;;22.69;30.62;98044.31;5039517;28;942;-77
2023/09/24 09:49:41;;;;;;;;;;;;;;;22.52;30.95;98049.28;5003716;28;1156;-77
2023/09/24 09:52:06;;;;;;;;;;;;;;;22.56;30.82;98044.31;5036388;28;1001;-77
2023/09/24 09:54:33;;;;;;;;;;;;;;;22.60;30.82;98045.00;5020055;28;1129;-77
2023/09/24 09:56:58;;;;;;;;;;;;;;;22.22;31.34;98042.06;5039427;28;936;-77
2023/09/24 09:59:24;;;;;;;;;;;;;;;22.55;30.57;98037.84;5089088;28;1103;-78
2023/09/24 10:01:49;;;;;;;;;;;;;;;22.47;30.84;98042.13;5096496;28;1014;-77
2023/09/24 10:04:15;;;;;;;;;;;;;;;22.38;31.11;98049.69;5096650;28;943;-77
2023/09/24 10:06:41;;;;;;;;;;;;;;;22.55;30.90;98046.34;5062736;28;1914;-77
2023/09/24 10:09:24;;;;;;;;;;;;;;;22.50;31.11;98038.41;5059453;28;1207;-77
2023/09/24 10:11:50;;;;;;;;;;;;;;;22.60;31.01;98048.63;5075851;28;1003;-77
2023/09/24 10:14:29;;;;;;;;;;;;;;;22.54;31.07;98052.50;5044853;28;1117;-77
2023/09/24 10:16:55;;;;;;;;;;;;;;;22.44;30.98;98047.91;5063903;28;1969;-77
2023/09/24 10:19:20;;;;;;;;;;;;;;;22.28;31.13;98046.75;5056081;28;1019;-77
2023/09/24 10:21:47;;;;;;;;;;;;;;;22.56;30.80;98039.44;5055982;28;1027;-77
2023/09/24 10:24:13;;;;;;;;;;;;;;;22.23;31.49;98033.13;5039193;28;1003;-77
2023/09/24 10:26:48;;;;;;;;;;;;;;;22.43;31.04;98034.97;5055446;28;1914;-77
2023/09/24 10:29:14;;;;;;;;;;;;;;;22.62;30.78;98039.66;5019289;28;1154;-77
2023/09/24 10:32:03;;;;;;;;;;;;;;;22.49;30.75;98038.88;5035728;28;1112;-77
2023/09/24 10:34:47;;;;;;;;;;;;;;;22.57;30.48;98029.66;5019056;28;995;-77
2023/09/24 10:37:12;;;;;;;;;;;;;;;22.51;30.78;98030.69;5019415;28;1095;-77
2023/09/24 10:40:15;;;;;;;;;;;;;;;22.59;30.69;98026.41;5045079;28;966;-77
2023/09/24 10:42:41;;;;;;;;;;;;;;;22.69;30.55;98036.63;4999623;28;977;-77
2023/09/24 10:45:07;;;;;;;;;;;;;;;22.58;30.71;98033.31;4999015;28;1903;-77
2023/09/24 10:47:34;;;;;;;;;;;;;;;22.48;30.72;98034.41;5015522;28;1028;-77
2023/09/24 10:50:06;;;;;;;;;;;;;;;22.53;30.77;98042.38;4998579;28;1177;-78
2023/09/24 10:52:50;;;;;;;;;;;;;;;22.41;30.88;98031.81;4999562;28;1016;-77
2023/09/24 10:55:16;;;;;;;;;;;;;;;22.41;30.79;98029.75;5015471;28;1017;-78
2023/09/24 10:57:45;;;;;;;;;;;;;;;22.49;30.59;98033.19;4999260;28;1963;-78
2023/09/24 11:00:17;;;;;;;;;;;;;;;22.47;30.63;98032.81;4999188;28;1116;-78
2023/09/24 11:02:43;;;;;;;;;;;;;;;22.56;30.57;98032.97;4983057;28;1240;-77
2023/09/24 11:05:09;;;;;;;;;;;;;;;22.48;30.61;98031.56;4966605;28;1902;-77
2023/09/24 11:07:34;;;;;;;;;;;;;;;22.64;30.27;98028.69;4982561;28;1226;-77
2023/09/24 11:10:00;;;;;;;;;;;;;;;22.50;30.69;98034.78;5014864;28;969;-78
2023/09/24 11:12:26;;;;;;;;;;;;;;;22.42;30.81;98024.88;4942950;29;1342;-77
2023/09/24 11:14:55;;;;;;;;;;;;;;;22.38;31.00;98022.13;4940825;29;1004;-77
2023/09/24 11:17:20;;;;;;;;;;;;;;;22.56;30.67;98024.47;5003378;28;1163;-77
2023/09/24 11:19:47;;;;;;;;;;;;;;;22.39;30.52;98020.91;4998978;28;967;-77
2023/09/24 11:22:19;;;;;;;;;;;;;;;22.56;30.57;98027.28;4998819;28;1001;-77
2023/09/24 11:24:45;;;;;;;;;;;;;;;22.47;30.74;98024.31;5031335;28;1914;-77
2023/09/24 11:27:11;;;;;;;;;;;;;;;22.62;30.54;98022.66;4998383;28;1008;-78
2023/09/24 11:29:36;;;;;;;;;;;;;;;22.69;30.42;98030.97;5014814;28;1038;-77
2023/09/24 11:32:02;;;;;;;;;;;;;;;22.36;30.81;98031.09;5014962;28;897;-77
2023/09/24 11:34:29;;;;;;;;;;;;;;;22.56;30.47;98032.97;5014773;28;1003;-78
2023/09/24 11:36:57;;;;;;;;;;;;;;;22.63;30.40;98021.41;4998417;28;1030;-77
2023/09/24 11:39:23;;;;;;;;;;;;;;;22.73;30.27;98025.16;5014946;28;1098;-77
2023/09/24 11:41:49;;;;;;;;;;;;;;;22.73;30.52;98020.28;5014761;28;1237;-77
2023/09/24 11:44:14;;;;;;;;;;;;;;;22.75;30.15;98023.47;5062820;28;1593;-77
2023/09/24 11:46:40;;;;;;;;;;;;;;;22.62;30.62;98025.50;5055645;28;1922;-78
2023/09/24 11:49:06;;;;;;;;;;;;;;;22.66;30.38;98031.84;5056292;28;940;-77
2023/09/24 11:51:32;;;;;;;;;;;;;;;22.56;30.43;98032.97;5056550;28;914;-77
2023/09/24 11:53:57;;;;;;;;;;;;;;;22.57;30.59;98023.22;5038534;28;1100;-77
2023/09/24 11:56:23;;;;;;;;;;;;;;;22.72;30.37;98027.19;5055352;28;956;-77
2023/09/24 11:58:48;;;;;;;;;;;;;;;22.71;30.38;98027.66;5055131;28;1064;-78
2023/09/24 12:01:14;;;;;;;;;;;;;;;22.58;30.68;98030.47;5054939;28;922;-78
2023/09/24 12:03:42;;;;;;;;;;;;;;;22.57;30.45;98040.22;5038794;28;1117;-77
2023/09/24 12:06:07;;;;;;;;;;;;;;;22.58;30.31;98036.13;5057497;28;1902;-77
2023/09/24 12:08:33;;;;;;;;;;;;;;;22.73;30.17;98037.28;5040741;28;1112;-77
2023/09/24 12:10:58;;;;;;;;;;;;;;;22.76;30.04;98033.56;5073854;28;929;-77
2023/09/24 12:13:24;;;;;;;;;;;;;;;22.63;30.56;98038.41;5057213;28;970;-78
2023/09/24 12:15:50;;;;;;;;;;;;;;;22.75;30.02;98045.38;5057388;28;1017;-78
2023/09/24 12:18:15;;;;;;;;;;;;;;;22.62;30.50;98043.28;5040651;28;1482;-77
2023/09/24 12:20:42;;;;;;;;;;;;;;;22.63;30.44;98044.88;5057029;28;1049;-77
2023/09/24 12:23:07;;;;;;;;;;;;;;;22.63;30.26;98046.91;5040618;28;965;-77
2023/09/24 12:25:36;;;;;;;;;;;;;;;22.75;30.36;98046.16;5040521;28;1902;-77
2023/09/24 12:28:05;;;;;;;;;;;;;;;22.60;30.61;98050.69;5057569;28;1041;-77
2023/09/24 12:30:31;;;;;;;;;;;;;;;22.81;30.01;98050.03;5040556;28;1014;-77
2023/09/24 12:32:57;;;;;;;;;;;;;;;22.72;30.16;98052.72;5057080;28;1140;-77
2023/09/24 12:35:24;;;;;;;;;;;;;;;22.83;29.78;98053.19;5057154;28;1174;-78
2023/09/24 12:37:49;;;;;;;;;;;;;;;22.73;30.34;98054.31;5059646;28;944;-77
2023/09/24 12:40:15;;;;;;;;;;;;;;;22.60;30.28;98045.00;5057120;28;972;-77
2023/09/24 12:42:41;;;;;;;;;;;;;;;22.75;30.10;98046.16;5073919;28;1054;-78
2023/09/24 12:45:07;;;;;;;;;;;;;;;22.80;30.30;98053.31;5040391;28;1898;-77
2023/09/24 12:47:33;;;;;;;;;;;;;;;22.40;30.91;98047.22;5057142;28;1102;-77
2023/09/24 12:50:03;;;;;;;;;;;;;;;22.41;30.65;98043.94;5036558;28;979;-77
2023/09/24 12:52:35;;;;;;;;;;;;;;;22.48;30.66;98042.91;5037544;28;1055;-77
2023/09/24 12:55:01;;;;;;;;;;;;;;;22.68;30.05;98043.53;5036802;28;1141;-77
2023/09/24 12:57:27;;;;;;;;;;;;;;;22.52;30.65;98043.63;5053419;28;1109;-77